createdAt,value
2019-04-06T00:01:17.467Z,33.87
2019-04-06T00:03:46.022Z,33.20
2019-04-06T00:06:14.587Z,32.50
2019-04-06T00:08:43.190Z,34.90
2019-04-06T00:11:11.783Z,34.93
2019-04-06T00:13:40.339Z,33.63
2019-04-06T00:16:08.980Z,32.37
2019-04-06T00:18:37.527Z,35.13
2019-04-06T00:21:06.105Z,35.63
2019-04-06T00:23:34.658Z,35.57
2019-04-06T00:26:03.239Z,34.37
2019-04-06T00:28:31.872Z,34.10
2019-04-06T00:31:18.467Z,35.77
2019-04-06T00:33:47.186Z,37.30
2019-04-06T00:36:15.811Z,38.77
2019-04-06T00:38:44.385Z,38.13
2019-04-06T00:41:12.932Z,35.53
2019-04-06T00:43:41.523Z,33.80
2019-04-06T00:46:10.147Z,34.23
2019-04-06T00:48:38.802Z,33.43
2019-04-06T00:51:07.356Z,33.30
2019-04-06T00:53:35.923Z,37.13
2019-04-06T00:56:04.555Z,32.40
2019-04-06T00:58:33.135Z,33.67
2019-04-06T01:01:01.952Z,32.80
2019-04-06T01:03:30.589Z,34.53
2019-04-06T01:05:59.130Z,32.83
2019-04-06T01:08:27.780Z,37.13
2019-04-06T01:10:56.422Z,35.27
2019-04-06T01:13:24.899Z,38.30
2019-04-06T01:15:53.846Z,35.77
2019-04-06T01:18:22.410Z,32.73
2019-04-06T01:20:50.981Z,39.13
2019-04-06T01:23:19.851Z,40.67
2019-04-06T01:25:48.592Z,42.50
2019-04-06T01:28:17.263Z,40.57
2019-04-06T01:30:45.907Z,37.93
2019-04-06T01:33:14.575Z,41.23
2019-04-06T01:35:43.148Z,41.10
2019-04-06T01:38:11.695Z,45.20
2019-04-06T01:40:40.467Z,43.03
2019-04-06T01:43:09.068Z,43.30
2019-04-06T01:45:37.624Z,53.83
2019-04-06T01:48:06.259Z,48.23
2019-04-06T01:50:34.885Z,39.43
2019-04-06T01:53:03.488Z,36.63
2019-04-06T01:55:32.039Z,33.60
2019-04-06T01:58:01.051Z,40.80
2019-04-06T02:00:29.596Z,37.93
2019-04-06T02:02:58.201Z,40.20
2019-04-06T02:05:26.723Z,40.20
2019-04-06T02:07:55.298Z,46.50
2019-04-06T02:10:23.911Z,44.50
2019-04-06T02:12:52.771Z,42.23
2019-04-06T02:15:21.326Z,40.73
2019-04-06T02:17:49.877Z,43.47
2019-04-06T02:20:18.447Z,45.43
2019-04-06T02:22:46.992Z,47.23
2019-04-06T02:25:15.567Z,48.77
2019-04-06T02:27:44.120Z,50.03
2019-04-06T02:30:17.504Z,41.10
2019-04-06T02:33:00.046Z,41.13
2019-04-06T02:35:36.667Z,40.23
2019-04-06T02:38:06.869Z,40.83
2019-04-06T02:40:43.329Z,39.77
2019-04-06T02:43:19.256Z,43.13
2019-04-06T02:45:48.170Z,44.17
2019-04-06T02:48:16.718Z,41.33
2019-04-06T02:50:45.284Z,40.73
2019-04-06T02:53:14.181Z,44.17
2019-04-06T02:55:42.918Z,40.43
2019-04-06T02:58:11.814Z,42.37
2019-04-06T03:00:40.747Z,46.33
2019-04-06T03:03:09.316Z,39.70
2019-04-06T03:05:37.940Z,45.27
2019-04-06T03:08:06.751Z,41.17
2019-04-06T03:10:35.296Z,46.70
2019-04-06T03:13:04.112Z,47.50
2019-04-06T03:15:32.736Z,51.73
2019-04-06T03:18:01.327Z,49.27
2019-04-06T03:20:30.205Z,50.63
2019-04-06T03:22:58.754Z,56.77
2019-04-06T03:25:27.319Z,46.90
2019-04-06T03:27:55.884Z,48.03
2019-04-06T03:30:24.440Z,47.10
2019-04-06T03:32:53.000Z,49.20
2019-04-06T03:35:21.618Z,51.93
2019-04-06T03:37:50.228Z,46.40
2019-04-06T03:40:18.799Z,51.17
2019-04-06T03:42:47.351Z,50.43
2019-04-06T03:45:16.053Z,58.47
2019-04-06T03:47:44.788Z,53.00
2019-04-06T03:50:13.516Z,50.00
2019-04-06T03:52:42.046Z,56.87
2019-04-06T03:55:10.612Z,52.53
2019-04-06T03:57:39.183Z,56.17
2019-04-06T04:00:07.975Z,53.43
2019-04-06T04:02:36.573Z,57.67
2019-04-06T04:05:06.267Z,55.27
2019-04-06T04:07:34.848Z,59.43
2019-04-06T04:10:05.156Z,57.37
2019-04-06T04:12:33.761Z,54.90
2019-04-06T04:15:02.874Z,64.07
2019-04-06T04:17:31.560Z,53.57
2019-04-06T04:20:00.115Z,60.13
2019-04-06T04:22:28.667Z,62.93
2019-04-06T04:24:57.243Z,72.83
2019-04-06T04:27:29.894Z,60.03
2019-04-06T04:29:56.301Z,70.37
2019-04-06T04:32:24.860Z,64.27
2019-04-06T04:34:53.423Z,65.60
2019-04-06T04:37:22.171Z,65.33
2019-04-06T04:39:50.759Z,67.37
2019-04-06T04:42:19.303Z,72.43
2019-04-06T04:44:47.901Z,65.33
2019-04-06T04:47:16.476Z,63.03
2019-04-06T04:49:45.023Z,72.10
2019-04-06T04:52:13.597Z,65.43
2019-04-06T04:54:42.375Z,60.73
2019-04-06T04:57:11.052Z,60.50
2019-04-06T04:59:39.768Z,65.80
2019-04-06T05:02:08.405Z,76.17
2019-04-06T05:04:36.951Z,65.27
2019-04-06T05:07:05.576Z,62.43
2019-04-06T05:09:34.072Z,69.20
2019-04-06T05:12:02.664Z,65.87
2019-04-06T05:14:54.215Z,58.60
2019-04-06T05:17:22.789Z,66.13
2019-04-06T05:19:51.351Z,72.57
2019-04-06T05:22:19.920Z,69.43
2019-04-06T05:24:48.631Z,64.33
2019-04-06T05:27:17.295Z,59.27
2019-04-06T05:29:45.966Z,69.30
2019-04-06T05:32:14.789Z,61.57
2019-04-06T05:34:43.661Z,65.17
2019-04-06T05:37:12.489Z,66.27
2019-04-06T05:39:41.115Z,64.03
2019-04-06T05:42:09.666Z,67.90
2019-04-06T05:44:38.270Z,69.70
2019-04-06T05:47:06.793Z,63.53
2019-04-06T05:49:35.368Z,56.17
2019-04-06T05:52:03.960Z,60.03
2019-04-06T05:54:32.681Z,58.07
2019-04-06T05:57:01.271Z,57.47
2019-04-06T05:59:30.059Z,57.20
2019-04-06T06:01:58.683Z,58.53
2019-04-06T06:04:27.251Z,62.73
2019-04-06T06:06:55.852Z,50.20
2019-04-06T06:09:24.487Z,64.70
2019-04-06T06:11:55.398Z,56.80
2019-04-06T06:14:23.255Z,72.93
2019-04-06T06:16:51.826Z,58.97
2019-04-06T06:19:20.588Z,51.20
2019-04-06T06:21:49.161Z,47.97
2019-04-06T06:24:17.706Z,56.07
2019-04-06T06:26:46.287Z,51.90
2019-04-06T06:29:14.835Z,50.40
2019-04-06T06:31:43.724Z,53.80
2019-04-06T06:34:12.349Z,57.97
2019-04-06T06:36:41.182Z,52.50
2019-04-06T06:39:10.396Z,56.97
2019-04-06T06:41:38.951Z,56.33
2019-04-06T06:44:07.803Z,60.50
2019-04-06T06:46:36.575Z,64.17
2019-04-06T06:49:05.525Z,63.03
2019-04-06T06:51:34.093Z,55.20
2019-04-06T06:54:02.724Z,58.20
2019-04-06T06:56:31.319Z,59.47
2019-04-06T06:59:00.102Z,59.77
2019-04-06T07:01:28.671Z,70.40
2019-04-06T07:03:57.233Z,60.13
2019-04-06T07:06:25.819Z,56.13
2019-04-06T07:08:54.373Z,61.83
2019-04-06T07:11:22.931Z,57.40
2019-04-06T07:13:51.515Z,63.83
2019-04-06T07:16:20.369Z,57.07
2019-04-06T07:18:48.955Z,56.73
2019-04-06T07:21:17.516Z,59.90
2019-04-06T07:23:46.249Z,49.13
2019-04-06T07:26:14.870Z,51.47
2019-04-06T07:28:43.600Z,51.40
2019-04-06T07:31:12.225Z,49.03
2019-04-06T07:33:41.066Z,41.57
2019-04-06T07:36:09.641Z,45.73
2019-04-06T07:38:38.506Z,41.93
2019-04-06T07:41:07.557Z,44.57
2019-04-06T07:43:36.258Z,43.57
2019-04-06T07:46:05.027Z,44.73
2019-04-06T07:48:33.633Z,44.50
2019-04-06T07:51:02.239Z,42.93
2019-04-06T07:53:30.806Z,46.67
2019-04-06T07:55:59.396Z,47.48
2019-04-06T07:58:29.313Z,48.43
2019-04-06T08:00:57.846Z,49.87
2019-04-06T08:03:26.495Z,52.33
2019-04-06T08:05:56.067Z,50.10
2019-04-06T08:08:24.633Z,54.87
2019-04-06T08:10:53.272Z,51.10
2019-04-06T08:13:21.851Z,51.43
2019-04-06T08:15:50.454Z,52.47
2019-04-06T08:18:19.120Z,48.40
2019-04-06T08:20:47.697Z,49.23
2019-04-06T08:23:16.412Z,52.23
2019-04-06T08:25:44.962Z,42.77
2019-04-06T08:28:13.983Z,48.13
2019-04-06T08:30:46.049Z,48.83
2019-04-06T08:33:12.790Z,53.63
2019-04-06T08:35:41.580Z,48.83
2019-04-06T08:38:10.151Z,45.40
2019-04-06T08:40:38.901Z,45.70
2019-04-06T08:43:07.563Z,41.70
2019-04-06T08:45:36.131Z,49.13
2019-04-06T08:48:04.823Z,52.40
2019-04-06T08:50:33.490Z,49.37
2019-04-06T08:53:02.058Z,50.73
2019-04-06T08:55:30.642Z,54.47
2019-04-06T08:57:59.198Z,48.83
2019-04-06T09:00:27.949Z,59.07
2019-04-06T09:02:56.508Z,53.87
2019-04-06T09:05:25.086Z,54.07
2019-04-06T09:07:53.655Z,51.70
2019-04-06T09:10:22.251Z,49.60
2019-04-06T09:12:50.813Z,50.40
2019-04-06T09:15:19.504Z,52.67
2019-04-06T09:17:48.177Z,57.03
2019-04-06T09:20:16.922Z,56.47
2019-04-06T09:22:45.625Z,61.97
2019-04-06T09:25:14.271Z,60.87
2019-04-06T09:27:42.985Z,59.93
2019-04-06T09:30:12.019Z,59.03
2019-04-06T09:32:40.609Z,61.13
2019-04-06T09:35:09.246Z,65.13
2019-04-06T09:37:37.839Z,57.57
2019-04-06T09:40:07.682Z,66.23
2019-04-06T09:42:36.400Z,64.83
2019-04-06T09:45:23.614Z,60.80
2019-04-06T09:47:53.862Z,67.57
2019-04-06T09:50:24.015Z,63.43
2019-04-06T09:53:00.232Z,60.70
2019-04-06T09:55:30.510Z,62.97
2019-04-06T09:58:03.699Z,60.80
2019-04-06T10:00:39.628Z,66.20
2019-04-06T10:03:26.405Z,61.93
2019-04-06T10:06:05.655Z,64.60
2019-04-06T10:08:52.005Z,65.13
2019-04-06T10:11:24.975Z,59.07
2019-04-06T10:13:55.254Z,57.27
2019-04-06T10:16:25.825Z,58.10
2019-04-06T10:19:05.518Z,58.50
2019-04-06T10:21:51.984Z,54.40
2019-04-06T10:24:22.210Z,55.00
2019-04-06T10:26:55.216Z,58.20
2019-04-06T10:29:25.572Z,55.63
2019-04-06T10:31:55.787Z,55.80
2019-04-06T10:34:26.008Z,56.80
2019-04-06T10:36:56.205Z,56.17
2019-04-06T10:39:43.070Z,44.03
2019-04-06T10:42:16.384Z,55.33
2019-04-06T10:44:46.621Z,36.53
2019-04-06T10:47:16.819Z,44.37
2019-04-06T10:49:59.275Z,50.23
2019-04-06T10:52:29.592Z,41.40
2019-04-06T10:55:05.811Z,35.23
2019-04-06T10:57:36.011Z,38.27
2019-04-06T11:00:08.093Z,35.47
2019-04-06T11:02:47.531Z,39.60
2019-04-06T11:05:18.373Z,39.87
2019-04-06T11:07:48.651Z,39.10
2019-04-06T11:10:19.131Z,40.00
2019-04-06T11:13:01.329Z,35.87
2019-04-06T11:15:31.637Z,42.07
2019-04-06T11:18:16.917Z,41.57
2019-04-06T11:21:05.493Z,39.13
2019-04-06T11:23:35.790Z,41.27
2019-04-06T11:26:22.242Z,43.60
2019-04-06T11:28:58.213Z,43.87
2019-04-06T11:31:37.335Z,39.53
2019-04-06T11:34:08.048Z,35.07
2019-04-06T11:36:44.361Z,36.13
2019-04-06T11:39:14.961Z,35.07
2019-04-06T11:41:45.552Z,38.20
2019-04-06T11:44:32.395Z,32.93
2019-04-06T11:47:05.190Z,34.90
2019-04-06T11:49:35.389Z,32.80
2019-04-06T11:52:22.169Z,66.10
2019-04-06T11:55:09.189Z,37.23
2019-04-06T11:57:42.719Z,37.07
2019-04-06T12:00:30.802Z,34.03
2019-04-06T12:03:20.331Z,40.43
2019-04-06T12:06:07.055Z,37.63
2019-04-06T12:08:40.305Z,36.43
2019-04-06T12:11:20.133Z,34.03
2019-04-06T12:13:50.334Z,35.30
2019-04-06T12:16:36.958Z,33.30
2019-04-06T12:19:14.658Z,32.67
2019-04-06T12:21:53.906Z,29.60
2019-04-06T12:24:27.373Z,35.03
2019-04-06T12:27:00.961Z,31.53
2019-04-06T12:29:48.009Z,32.03
2019-04-06T12:32:21.507Z,36.13
2019-04-06T12:34:54.952Z,34.80
2019-04-06T12:37:40.487Z,37.27
2019-04-06T12:40:10.968Z,31.40
2019-04-06T12:42:50.647Z,32.87
2019-04-06T12:45:32.721Z,30.87
2019-04-06T12:48:19.714Z,30.53
2019-04-06T12:51:06.652Z,28.80
2019-04-06T12:53:45.727Z,29.80
2019-04-06T12:56:16.292Z,33.07
2019-04-06T12:59:01.918Z,34.10
2019-04-06T13:01:34.845Z,25.67
2019-04-06T13:04:21.095Z,30.77
2019-04-06T13:07:00.327Z,27.00
2019-04-06T13:09:33.937Z,29.67
2019-04-06T13:12:10.059Z,29.67
2019-04-06T13:14:40.369Z,27.93
2019-04-06T13:17:26.767Z,27.17
2019-04-06T13:20:02.856Z,29.97
2019-04-06T13:22:42.330Z,25.83
2019-04-06T13:25:21.460Z,31.70
2019-04-06T13:28:00.628Z,28.27
2019-04-06T13:30:36.823Z,29.53
2019-04-06T13:33:19.364Z,26.07
2019-04-06T13:35:49.684Z,24.87
2019-04-06T13:38:19.992Z,23.67
2019-04-06T13:41:06.830Z,27.27
2019-04-06T13:43:40.225Z,25.30
2019-04-06T13:46:10.499Z,29.33
2019-04-06T13:48:59.046Z,25.07
2019-04-06T13:51:46.203Z,26.83
2019-04-06T13:54:28.912Z,28.23
2019-04-06T13:57:11.076Z,26.67
2019-04-06T13:59:50.981Z,22.87
2019-04-06T14:02:21.271Z,23.00
2019-04-06T14:04:54.261Z,22.87
2019-04-06T14:07:40.638Z,25.17
2019-04-06T14:10:16.774Z,26.93
2019-04-06T14:12:47.008Z,23.13
2019-04-06T14:15:17.345Z,24.07
2019-04-06T14:17:47.563Z,23.20
2019-04-06T14:20:20.436Z,24.57
2019-04-06T14:22:56.410Z,22.47
2019-04-06T14:25:32.629Z,29.57
2019-04-06T14:28:19.533Z,22.17
2019-04-06T14:30:59.095Z,22.47
2019-04-06T14:33:46.135Z,23.43
2019-04-06T14:36:16.494Z,23.70
2019-04-06T14:38:59.844Z,23.87
2019-04-06T14:41:48.615Z,22.43
2019-04-06T14:44:21.950Z,24.43
2019-04-06T14:47:01.626Z,24.03
2019-04-06T14:49:50.210Z,23.47
2019-04-06T14:52:36.710Z,20.90
2019-04-06T14:55:07.954Z,26.50
2019-04-06T14:57:38.202Z,24.50
2019-04-06T15:00:26.234Z,29.77
2019-04-06T15:03:02.675Z,27.40
2019-04-06T15:05:41.946Z,24.53
2019-04-06T15:08:15.087Z,25.80
2019-04-06T15:10:51.331Z,24.03
2019-04-06T15:13:21.527Z,24.93
2019-04-06T15:16:00.784Z,27.17
2019-04-06T15:18:36.454Z,25.70
2019-04-06T15:21:12.420Z,25.47
2019-04-06T15:23:48.487Z,23.90
2019-04-06T15:26:22.412Z,24.80
2019-04-06T15:28:52.985Z,24.70
2019-04-06T15:31:29.082Z,25.70
2019-04-06T15:34:06.071Z,26.03
2019-04-06T15:36:45.313Z,26.33
2019-04-06T15:39:18.326Z,26.07
2019-04-06T15:41:57.007Z,23.37
2019-04-06T15:44:39.232Z,22.53
2019-04-06T15:47:09.452Z,28.53
2019-04-06T15:49:57.995Z,22.83
2019-04-06T15:52:44.657Z,24.50
2019-04-06T15:55:24.074Z,29.77
2019-04-06T15:57:54.461Z,22.73
2019-04-06T16:00:30.102Z,21.87
2019-04-06T16:03:03.266Z,22.43
2019-04-06T16:05:33.468Z,22.87
2019-04-06T16:08:03.688Z,22.60
2019-04-06T16:10:34.552Z,22.10
2019-04-06T16:13:13.697Z,22.93
2019-04-06T16:15:52.726Z,20.33
2019-04-06T16:18:33.669Z,20.60
2019-04-06T16:21:07.574Z,21.07
2019-04-06T16:24:01.295Z,25.93
2019-04-06T16:26:22.407Z,22.73
2019-04-06T16:29:10.691Z,21.43
2019-04-06T16:31:44.958Z,20.10
2019-04-06T16:34:24.546Z,21.63
2019-04-06T16:37:15.801Z,18.70
2019-04-06T16:40:06.119Z,21.00
2019-04-06T16:42:51.585Z,21.43
2019-04-06T16:45:30.997Z,24.93
2019-04-06T16:48:01.199Z,17.83
2019-04-06T16:50:37.374Z,19.70
2019-04-06T16:53:18.157Z,19.10
2019-04-06T16:55:48.801Z,20.73
2019-04-06T16:58:21.710Z,20.17
2019-04-06T17:01:09.749Z,21.73
2019-04-06T17:03:46.533Z,22.80
2019-04-06T17:06:22.617Z,22.73
2019-04-06T17:08:55.640Z,20.73
2019-04-06T17:11:35.094Z,21.53
2019-04-06T17:14:22.027Z,29.10
2019-04-06T17:17:08.616Z,21.00
2019-04-06T17:19:54.227Z,24.13
2019-04-06T17:22:24.558Z,21.13
2019-04-06T17:25:11.176Z,19.47
2019-04-06T17:27:41.918Z,23.17
2019-04-06T17:30:15.481Z,21.23
2019-04-06T17:33:02.731Z,20.67
2019-04-06T17:35:33.357Z,20.90
2019-04-06T17:38:06.151Z,24.80
2019-04-06T17:40:39.159Z,22.33
2019-04-06T17:43:15.745Z,20.63
2019-04-06T17:45:52.278Z,21.00
2019-04-06T17:48:28.899Z,20.67
2019-04-06T17:51:17.740Z,21.67
2019-04-06T17:53:51.301Z,22.97
2019-04-06T17:56:21.773Z,23.57
2019-04-06T17:59:08.638Z,21.03
2019-04-06T18:01:47.953Z,20.80
2019-04-06T18:04:34.695Z,23.83
2019-04-06T18:07:21.419Z,19.87
2019-04-06T18:09:51.883Z,20.20
2019-04-06T18:12:22.153Z,21.43
2019-04-06T18:14:51.507Z,20.37
2019-04-06T18:17:20.115Z,20.43
2019-04-06T18:19:48.691Z,23.03
2019-04-06T18:22:18.568Z,22.07
2019-04-06T18:24:47.218Z,23.47
2019-04-06T18:27:16.240Z,19.43
2019-04-06T18:29:45.367Z,20.77
2019-04-06T18:32:33.965Z,19.83
2019-04-06T18:35:02.890Z,21.03
2019-04-06T18:37:36.036Z,21.30
2019-04-06T18:40:08.116Z,21.23
2019-04-06T18:42:36.743Z,19.97
2019-04-06T18:45:06.466Z,19.20
2019-04-06T18:47:35.051Z,20.50
2019-04-06T18:50:04.767Z,20.17
2019-04-06T18:52:33.399Z,18.60
2019-04-06T18:55:01.944Z,22.37
2019-04-06T18:57:33.057Z,22.03
2019-04-06T19:00:01.856Z,25.40
2019-04-06T19:02:30.595Z,18.43
2019-04-06T19:05:01.332Z,20.57
2019-04-06T19:07:30.265Z,23.00
2019-04-06T19:09:59.151Z,21.10
2019-04-06T19:12:27.880Z,21.40
2019-04-06T19:14:56.554Z,19.37
2019-04-06T19:17:25.158Z,21.13
2019-04-06T19:19:53.906Z,18.73
2019-04-06T19:22:22.824Z,21.97
2019-04-06T19:24:51.475Z,18.50
2019-04-06T19:27:20.553Z,18.30
2019-04-06T19:29:49.110Z,19.27
2019-04-06T19:32:18.015Z,22.13
2019-04-06T19:34:47.019Z,20.60
2019-04-06T19:37:16.031Z,21.73
2019-04-06T19:39:45.045Z,19.27
2019-04-06T19:42:13.988Z,20.17
2019-04-06T19:44:42.588Z,18.27
2019-04-06T19:47:11.125Z,18.47
2019-04-06T19:49:39.876Z,19.30
2019-04-06T19:52:08.475Z,17.33
2019-04-06T19:54:37.052Z,16.67
2019-04-06T19:57:05.619Z,20.47
2019-04-06T19:59:34.622Z,18.70
2019-04-06T20:02:03.242Z,17.47
2019-04-06T20:04:31.889Z,26.47
2019-04-06T20:07:00.389Z,22.87
2019-04-06T20:09:29.229Z,21.17
2019-04-06T20:12:04.379Z,20.93
2019-04-06T20:14:29.978Z,23.87
2019-04-06T20:16:58.787Z,21.73
2019-04-06T20:19:27.306Z,25.67
2019-04-06T20:21:56.606Z,22.30
2019-04-06T20:24:25.169Z,24.40
2019-04-06T20:26:53.730Z,20.43
2019-04-06T20:29:22.353Z,21.37
2019-04-06T20:31:51.034Z,20.83
2019-04-06T20:34:20.240Z,19.97
2019-04-06T20:36:48.910Z,19.17
2019-04-06T20:39:17.474Z,25.93
2019-04-06T20:41:46.479Z,66.90
2019-04-06T20:44:15.608Z,32.37
2019-04-06T20:46:44.249Z,30.73
2019-04-06T20:49:12.887Z,18.27
2019-04-06T20:51:41.553Z,20.77
2019-04-06T20:54:10.635Z,17.43
2019-04-06T20:56:39.308Z,17.10
2019-04-06T20:59:07.836Z,14.10
2019-04-06T21:01:36.482Z,17.00
2019-04-06T21:04:05.369Z,13.47
2019-04-06T21:06:34.554Z,12.23
2019-04-06T21:09:04.762Z,17.73
2019-04-06T21:11:34.010Z,19.83
2019-04-06T21:14:03.291Z,14.70
2019-04-06T21:16:34.636Z,16.47
2019-04-06T21:19:03.735Z,19.40
2019-04-06T21:21:32.632Z,17.63
2019-04-06T21:24:01.558Z,18.47
2019-04-06T21:26:30.118Z,20.93
2019-04-06T21:28:58.693Z,20.50
2019-04-06T21:31:27.404Z,20.63
2019-04-06T21:33:56.087Z,21.90
2019-04-06T21:36:24.748Z,20.00
2019-04-06T21:38:53.858Z,20.83
2019-04-06T21:41:23.011Z,21.07
2019-04-06T21:43:52.131Z,24.93
2019-04-06T21:46:21.306Z,24.03
2019-04-06T21:48:50.655Z,20.07
2019-04-06T21:51:19.335Z,25.03
2019-04-06T21:53:48.013Z,20.17
2019-04-06T21:56:16.861Z,20.57
2019-04-06T21:58:45.898Z,23.97
2019-04-06T22:01:17.339Z,21.97
2019-04-06T22:03:45.858Z,22.17
2019-04-06T22:06:14.581Z,22.23
2019-04-06T22:08:43.208Z,20.43
2019-04-06T22:11:11.970Z,20.87
2019-04-06T22:13:40.905Z,18.77
2019-04-06T22:16:09.618Z,22.30
2019-04-06T22:18:38.551Z,20.17
2019-04-06T22:21:07.191Z,22.10
2019-04-06T22:23:42.203Z,20.67
2019-04-06T22:26:06.085Z,21.40
2019-04-06T22:28:35.064Z,23.00
2019-04-06T22:31:04.221Z,20.97
2019-04-06T22:33:33.115Z,18.80
2019-04-06T22:36:02.160Z,19.30
2019-04-06T22:38:30.878Z,23.20
2019-04-06T22:40:59.423Z,20.83
2019-04-06T22:43:28.284Z,23.53
2019-04-06T22:45:57.550Z,19.07
2019-04-06T22:48:26.596Z,17.23
2019-04-06T22:50:55.193Z,19.87
2019-04-06T22:53:23.818Z,17.20
2019-04-06T22:55:52.370Z,15.73
2019-04-06T22:58:20.964Z,20.97
2019-04-06T23:00:51.205Z,17.50
2019-04-06T23:03:27.406Z,15.60
2019-04-06T23:05:57.529Z,15.80
2019-04-06T23:08:26.266Z,16.90
2019-04-06T23:10:54.760Z,16.37
2019-04-06T23:13:23.331Z,19.33
2019-04-06T23:15:51.888Z,16.17
2019-04-06T23:18:20.892Z,15.27
2019-04-06T23:20:49.607Z,17.87
2019-04-06T23:23:18.510Z,17.70
2019-04-06T23:25:47.327Z,20.33
2019-04-06T23:28:15.935Z,18.03
2019-04-06T23:30:44.555Z,17.47
2019-04-06T23:33:13.108Z,15.13
2019-04-06T23:35:42.273Z,16.97
2019-04-06T23:38:11.215Z,19.10
2019-04-06T23:40:40.090Z,17.67
2019-04-06T23:43:08.643Z,17.23
2019-04-06T23:45:37.823Z,16.67
2019-04-06T23:48:06.369Z,19.60
2019-04-06T23:50:36.889Z,15.27
2019-04-06T23:53:05.542Z,15.80
2019-04-06T23:55:34.163Z,20.70
2019-04-06T23:58:02.885Z,17.27
